createdAt,value
2023-01-30T00:00:31.284Z,2.95
2023-01-30T00:01:31.259Z,2.95
2023-01-30T00:02:31.260Z,2.95
2023-01-30T00:03:31.254Z,2.93
2023-01-30T00:04:31.249Z,2.95
2023-01-30T00:05:31.224Z,2.95
2023-01-30T00:06:31.224Z,3.00
2023-01-30T00:07:31.196Z,3.01
2023-01-30T00:08:31.234Z,3.01
2023-01-30T00:09:31.170Z,3.03
2023-01-30T00:10:31.204Z,3.03
2023-01-30T00:11:31.159Z,3.03
2023-01-30T00:12:31.163Z,3.03
2023-01-30T00:13:31.127Z,3.04
2023-01-30T00:14:31.159Z,3.05
2023-01-30T00:15:31.109Z,3.04
2023-01-30T00:16:31.192Z,3.08
2023-01-30T00:17:31.092Z,3.05
2023-01-30T00:18:31.110Z,3.08
2023-01-30T00:19:31.062Z,3.04
2023-01-30T00:20:31.087Z,3.05
2023-01-30T00:21:31.081Z,3.08
2023-01-30T00:22:31.062Z,3.08
2023-01-30T00:23:31.022Z,3.13
2023-01-30T00:24:31.201Z,3.13
2023-01-30T00:25:31.121Z,3.14
2023-01-30T00:26:31.064Z,3.14
2023-01-30T00:27:30.980Z,3.14
2023-01-30T00:28:30.990Z,3.13
2023-01-30T00:29:30.972Z,3.13
2023-01-30T00:30:31.037Z,3.13
2023-01-30T00:31:31.110Z,3.14
2023-01-30T00:32:30.963Z,3.14
2023-01-30T00:33:30.922Z,3.13
2023-01-30T00:34:30.930Z,3.16
2023-01-30T00:35:30.903Z,3.21
2023-01-30T00:36:30.940Z,3.18
2023-01-30T00:37:30.883Z,3.14
2023-01-30T00:38:30.888Z,3.18
2023-01-30T00:39:30.856Z,3.19
2023-01-30T00:40:30.871Z,3.19
2023-01-30T00:41:30.834Z,3.19
2023-01-30T00:42:30.911Z,3.13
2023-01-30T00:43:30.817Z,3.16
2023-01-30T00:44:30.840Z,3.13
2023-01-30T00:45:30.851Z,3.11
2023-01-30T00:46:30.826Z,3.11
2023-01-30T00:47:30.771Z,3.11
2023-01-30T00:48:30.822Z,3.14
2023-01-30T00:49:31.903Z,3.16
2023-01-30T00:50:30.762Z,3.16
2023-01-30T00:51:30.730Z,3.19
2023-01-30T00:52:30.753Z,3.19
2023-01-30T00:53:30.711Z,3.16
2023-01-30T00:54:30.744Z,3.18
2023-01-30T00:55:30.689Z,3.19
2023-01-30T00:56:30.703Z,3.19
2023-01-30T00:57:30.669Z,3.18
2023-01-30T00:58:30.713Z,3.21
2023-01-30T00:59:30.649Z,3.23
2023-01-30T01:00:30.678Z,3.23
2023-01-30T01:01:30.646Z,3.23
2023-01-30T01:02:30.643Z,3.25
2023-01-30T01:03:30.607Z,3.25
2023-01-30T01:04:30.630Z,3.28
2023-01-30T01:05:30.589Z,3.29
2023-01-30T01:06:30.622Z,3.31
2023-01-30T01:07:30.575Z,3.32
2023-01-30T01:08:30.581Z,3.31
2023-01-30T01:09:30.546Z,3.32
2023-01-30T01:10:30.571Z,3.36
2023-01-30T01:11:30.536Z,3.36
2023-01-30T01:12:30.563Z,3.36
2023-01-30T01:13:30.507Z,3.36
2023-01-30T01:14:30.516Z,3.32
2023-01-30T01:15:30.497Z,3.40
2023-01-30T01:16:30.570Z,3.41
2023-01-30T01:17:30.466Z,3.41
2023-01-30T01:18:30.513Z,3.40
2023-01-30T01:19:30.445Z,3.42
2023-01-30T01:20:30.487Z,3.44
2023-01-30T01:21:30.421Z,3.44
2023-01-30T01:22:30.434Z,3.45
2023-01-30T01:23:30.406Z,3.47
2023-01-30T01:24:30.439Z,3.45
2023-01-30T01:25:30.393Z,3.42
2023-01-30T01:26:30.450Z,3.45
2023-01-30T01:27:30.368Z,3.45
2023-01-30T01:28:30.385Z,3.45
2023-01-30T01:29:30.339Z,3.42
2023-01-30T01:30:30.375Z,3.45
2023-01-30T01:31:30.426Z,3.47
2023-01-30T01:32:30.334Z,3.51
2023-01-30T01:33:30.298Z,3.51
2023-01-30T01:34:30.327Z,3.55
2023-01-30T01:35:30.291Z,3.56
2023-01-30T01:37:30.263Z,3.59
2023-01-30T01:38:30.275Z,3.62
2023-01-30T01:39:30.241Z,3.62
2023-01-30T01:40:30.268Z,3.65
2023-01-30T01:41:30.224Z,3.65
2023-01-30T01:42:30.267Z,3.65
2023-01-30T01:43:30.194Z,3.68
2023-01-30T01:44:30.211Z,3.65
2023-01-30T01:45:30.179Z,3.62
2023-01-30T01:46:30.188Z,3.63
2023-01-30T01:47:30.171Z,3.65
2023-01-30T01:48:30.190Z,3.65
2023-01-30T01:49:30.131Z,3.65
2023-01-30T01:50:30.153Z,3.63
2023-01-30T01:51:30.117Z,3.66
2023-01-30T01:52:30.130Z,3.69
2023-01-30T01:53:30.093Z,3.73
2023-01-30T01:54:30.139Z,3.74
2023-01-30T01:55:30.071Z,3.77
2023-01-30T01:56:30.091Z,3.77
2023-01-30T01:57:30.055Z,3.74
2023-01-30T01:58:30.063Z,3.74
2023-01-30T01:59:30.040Z,3.74
2023-01-30T02:00:30.060Z,3.73
2023-01-30T02:01:30.089Z,3.77
2023-01-30T02:02:30.172Z,3.76
2023-01-30T02:03:29.989Z,3.77
2023-01-30T02:04:29.998Z,3.74
2023-01-30T02:05:29.973Z,3.78
2023-01-30T02:06:29.997Z,3.76
2023-01-30T02:07:29.964Z,3.76
2023-01-30T02:08:29.958Z,3.76
2023-01-30T02:09:29.926Z,3.81
2023-01-30T02:10:29.940Z,3.78
2023-01-30T02:11:29.902Z,3.80
2023-01-30T02:12:29.938Z,3.78
2023-01-30T02:13:29.883Z,3.77
2023-01-30T02:14:29.899Z,3.81
2023-01-30T02:15:29.877Z,3.78
2023-01-30T02:16:29.881Z,3.77
2023-01-30T02:17:29.884Z,3.76
2023-01-30T02:18:29.885Z,3.74
2023-01-30T02:19:29.826Z,3.77
2023-01-30T02:20:29.830Z,3.81
2023-01-30T02:21:29.804Z,3.80
2023-01-30T02:22:29.817Z,3.77
2023-01-30T02:23:29.797Z,3.76
2023-01-30T02:24:29.825Z,3.74
2023-01-30T02:25:29.768Z,3.73
2023-01-30T02:26:29.858Z,3.73
2023-01-30T02:27:29.754Z,3.78
2023-01-30T02:28:29.753Z,3.77
2023-01-30T02:29:29.723Z,3.77
2023-01-30T02:30:29.894Z,3.77
2023-01-30T02:31:29.886Z,3.88
2023-01-30T02:32:29.692Z,3.94
2023-01-30T02:33:29.704Z,3.98
2023-01-30T02:34:29.663Z,4.04
2023-01-30T02:35:29.680Z,4.04
2023-01-30T02:36:29.662Z,4.04
2023-01-30T02:37:29.698Z,4.06
2023-01-30T02:38:29.642Z,4.12
2023-01-30T02:39:29.647Z,4.06
2023-01-30T02:40:29.622Z,4.16
2023-01-30T02:41:29.629Z,4.22
2023-01-30T02:42:29.625Z,4.23
2023-01-30T02:43:29.606Z,4.26
2023-01-30T02:44:29.567Z,4.24
2023-01-30T02:45:29.573Z,4.26
2023-01-30T02:46:29.543Z,4.30
2023-01-30T02:47:29.560Z,4.38
2023-01-30T02:48:29.540Z,4.41
2023-01-30T02:49:29.539Z,4.42
2023-01-30T02:50:29.506Z,4.44
2023-01-30T02:51:29.516Z,4.42
2023-01-30T02:52:29.483Z,4.41
2023-01-30T02:53:29.495Z,4.41
2023-01-30T02:54:29.504Z,4.40
2023-01-30T02:55:29.471Z,4.44
2023-01-30T02:56:29.441Z,4.42
2023-01-30T02:57:29.470Z,4.40
2023-01-30T02:58:29.419Z,4.41
2023-01-30T02:59:29.437Z,4.42
2023-01-30T03:00:29.436Z,4.40
2023-01-30T03:01:29.464Z,4.41
2023-01-30T03:02:29.416Z,4.40
2023-01-30T03:03:29.393Z,4.42
2023-01-30T03:04:29.372Z,4.42
2023-01-30T03:05:29.370Z,4.41
2023-01-30T03:06:29.350Z,4.42
2023-01-30T03:07:29.349Z,4.40
2023-01-30T03:08:29.313Z,4.40
2023-01-30T03:09:29.349Z,4.38
2023-01-30T03:10:29.293Z,4.44
2023-01-30T03:11:29.302Z,4.42
2023-01-30T03:12:29.297Z,4.40
2023-01-30T03:13:29.294Z,4.40
2023-01-30T03:14:29.258Z,4.40
2023-01-30T03:15:29.281Z,4.41
2023-01-30T03:16:29.236Z,4.41
2023-01-30T03:17:29.243Z,4.44
2023-01-30T03:18:29.245Z,4.48
2023-01-30T03:19:29.224Z,4.44
2023-01-30T03:20:29.189Z,4.44
2023-01-30T03:21:29.203Z,4.41
2023-01-30T03:22:29.168Z,4.44
2023-01-30T03:23:29.184Z,4.45
2023-01-30T03:24:29.171Z,4.45
2023-01-30T03:25:29.229Z,4.49
2023-01-30T03:26:29.152Z,4.52
2023-01-30T03:27:29.154Z,4.52
2023-01-30T03:28:29.115Z,4.50
2023-01-30T03:29:29.122Z,4.53
2023-01-30T03:30:29.107Z,4.56
2023-01-30T03:31:29.236Z,4.56
2023-01-30T03:32:29.073Z,4.56
2023-01-30T03:33:29.075Z,4.58
2023-01-30T03:34:29.043Z,4.59
2023-01-30T03:35:29.070Z,4.59
2023-01-30T03:36:29.056Z,4.60
2023-01-30T03:37:29.035Z,4.63
2023-01-30T03:38:29.041Z,4.62
2023-01-30T03:39:29.020Z,4.66
2023-01-30T03:40:28.996Z,4.63
2023-01-30T03:41:29.013Z,4.63
2023-01-30T03:42:28.991Z,4.62
2023-01-30T03:43:28.976Z,4.59
2023-01-30T03:44:28.955Z,4.59
2023-01-30T03:45:28.956Z,4.58
2023-01-30T03:46:28.970Z,4.56
2023-01-30T03:47:28.938Z,4.53
2023-01-30T03:48:28.923Z,4.55
2023-01-30T03:49:28.921Z,4.59
2023-01-30T03:50:28.874Z,4.56
2023-01-30T03:51:28.890Z,4.56
2023-01-30T03:52:28.867Z,4.56
2023-01-30T03:53:28.869Z,4.50
2023-01-30T03:54:28.872Z,4.49
2023-01-30T03:55:28.849Z,4.44
2023-01-30T03:56:28.827Z,4.42
2023-01-30T03:57:28.843Z,4.41
2023-01-30T03:58:28.796Z,4.42
2023-01-30T03:59:28.818Z,4.41
2023-01-30T04:00:28.804Z,4.42
2023-01-30T04:01:28.828Z,4.44
2023-01-30T04:02:28.801Z,4.42
2023-01-30T04:03:28.776Z,4.41
2023-01-30T04:04:28.734Z,4.40
2023-01-30T04:05:28.744Z,4.38
2023-01-30T04:06:28.753Z,4.38
2023-01-30T04:07:28.725Z,4.41
2023-01-30T04:08:28.688Z,4.38
2023-01-30T04:09:28.699Z,4.45
2023-01-30T04:10:28.678Z,4.45
2023-01-30T04:11:28.687Z,4.44
2023-01-30T04:12:28.662Z,4.44
2023-01-30T04:13:28.666Z,4.44
2023-01-30T04:14:28.625Z,4.50
2023-01-30T04:15:28.638Z,4.44
2023-01-30T04:16:28.632Z,4.48
2023-01-30T04:17:28.621Z,4.45
2023-01-30T04:18:28.597Z,4.44
2023-01-30T04:19:28.613Z,4.44
2023-01-30T04:20:28.585Z,4.45
2023-01-30T04:21:28.578Z,4.50
2023-01-30T04:22:28.548Z,4.50
2023-01-30T04:23:28.566Z,4.52
2023-01-30T04:24:28.555Z,4.55
2023-01-30T04:25:28.534Z,4.56
2023-01-30T04:26:28.566Z,4.56
2023-01-30T04:27:28.521Z,4.55
2023-01-30T04:28:28.481Z,4.55
2023-01-30T04:29:28.501Z,4.53
2023-01-30T04:30:28.536Z,4.50
2023-01-30T04:31:28.494Z,4.49
2023-01-30T04:32:28.451Z,4.52
2023-01-30T04:33:28.455Z,4.48
2023-01-30T04:34:28.423Z,4.49
2023-01-30T04:35:28.438Z,4.48
2023-01-30T04:36:28.419Z,4.48
2023-01-30T04:37:28.414Z,4.50
2023-01-30T04:38:28.378Z,4.58
2023-01-30T04:39:28.389Z,4.58
2023-01-30T04:40:28.378Z,4.58
2023-01-30T04:41:28.352Z,4.55
2023-01-30T04:42:28.503Z,4.53
2023-01-30T04:43:28.332Z,4.53
2023-01-30T04:44:28.353Z,4.55
2023-01-30T04:45:29.328Z,4.59
2023-01-30T04:46:28.328Z,4.58
2023-01-30T04:47:28.317Z,4.59
2023-01-30T04:48:28.349Z,4.59
2023-01-30T04:49:28.262Z,4.58
2023-01-30T04:50:28.281Z,4.58
2023-01-30T04:51:28.252Z,4.56
2023-01-30T04:52:28.262Z,4.56
2023-01-30T04:53:28.231Z,4.56
2023-01-30T04:54:28.262Z,4.56
2023-01-30T04:55:28.200Z,4.62
2023-01-30T04:56:28.216Z,4.63
2023-01-30T04:57:28.186Z,4.66
2023-01-30T04:58:28.208Z,4.60
2023-01-30T04:59:28.161Z,4.59
2023-01-30T05:00:28.227Z,4.59
2023-01-30T05:01:28.145Z,4.58
2023-01-30T05:02:28.150Z,4.60
2023-01-30T05:03:28.135Z,4.59
2023-01-30T05:04:28.140Z,4.58
2023-01-30T05:05:28.099Z,4.60
2023-01-30T05:06:28.129Z,4.63
2023-01-30T05:07:28.080Z,4.67
2023-01-30T05:08:28.095Z,4.67
2023-01-30T05:09:28.055Z,4.67
2023-01-30T05:10:28.180Z,4.68
2023-01-30T05:11:28.044Z,4.63
2023-01-30T05:12:28.086Z,4.60
2023-01-30T05:13:28.012Z,4.60
2023-01-30T05:14:28.028Z,4.66
2023-01-30T05:15:27.998Z,4.63
2023-01-30T05:16:28.012Z,4.63
2023-01-30T05:17:28.004Z,4.67
2023-01-30T05:18:28.007Z,4.63
2023-01-30T05:19:27.963Z,4.62
2023-01-30T05:20:27.974Z,4.66
2023-01-30T05:21:28.027Z,4.67
2023-01-30T05:22:27.943Z,4.63
2023-01-30T05:23:27.919Z,4.68
2023-01-30T05:24:27.944Z,4.66
2023-01-30T05:25:27.905Z,4.70
2023-01-30T05:26:27.977Z,4.70
2023-01-30T05:27:27.871Z,4.70
2023-01-30T05:28:27.891Z,4.71
2023-01-30T05:29:27.852Z,4.73
2023-01-30T05:30:27.896Z,4.74
2023-01-30T05:31:27.861Z,4.77
2023-01-30T05:32:27.843Z,4.74
2023-01-30T05:33:27.808Z,4.74
2023-01-30T05:34:27.818Z,4.74
2023-01-30T05:35:27.812Z,4.74
2023-01-30T05:36:27.822Z,4.73
2023-01-30T05:37:27.766Z,4.74
2023-01-30T05:38:27.776Z,4.77
2023-01-30T05:39:27.750Z,4.75
2023-01-30T05:40:27.755Z,4.78
2023-01-30T05:41:27.720Z,4.75
2023-01-30T05:42:27.751Z,4.80
2023-01-30T05:43:27.701Z,4.84
2023-01-30T05:44:27.725Z,4.86
2023-01-30T05:45:27.687Z,4.86
2023-01-30T05:46:27.715Z,4.87
2023-01-30T05:47:27.659Z,4.90
2023-01-30T05:48:27.741Z,4.89
2023-01-30T05:49:27.887Z,4.86
2023-01-30T05:50:27.659Z,4.82
2023-01-30T05:51:27.641Z,4.86
2023-01-30T05:52:27.628Z,4.78
2023-01-30T05:53:27.613Z,4.82
2023-01-30T05:54:27.628Z,4.82
2023-01-30T05:55:27.580Z,4.84
2023-01-30T05:56:27.618Z,4.87
2023-01-30T05:57:27.559Z,4.87
2023-01-30T05:58:27.577Z,4.87
2023-01-30T05:59:27.534Z,4.87
2023-01-30T06:00:27.570Z,4.87
2023-01-30T06:01:27.513Z,4.86
2023-01-30T06:02:27.560Z,4.84
2023-01-30T06:03:27.516Z,4.82
2023-01-30T06:04:27.510Z,4.84
2023-01-30T06:05:27.475Z,4.86
2023-01-30T06:06:27.505Z,4.86
2023-01-30T06:07:27.458Z,4.84
2023-01-30T06:08:27.466Z,4.86
2023-01-30T06:09:27.432Z,4.87
2023-01-30T06:10:27.446Z,4.86
2023-01-30T06:11:27.412Z,4.89
2023-01-30T06:12:27.441Z,4.87
2023-01-30T06:13:27.390Z,4.86
2023-01-30T06:14:27.402Z,4.87
2023-01-30T06:15:27.366Z,4.92
2023-01-30T06:16:27.472Z,4.87
2023-01-30T06:17:29.104Z,4.87
2023-01-30T06:18:27.379Z,4.92
2023-01-30T06:19:27.334Z,4.93
2023-01-30T06:20:27.344Z,4.94
2023-01-30T06:21:27.312Z,4.93
2023-01-30T06:22:27.323Z,4.94
2023-01-30T06:23:27.290Z,4.94
2023-01-30T06:24:27.313Z,4.94
2023-01-30T06:25:27.280Z,4.94
2023-01-30T06:26:27.314Z,4.92
2023-01-30T06:27:27.262Z,4.94
2023-01-30T06:28:27.286Z,4.96
2023-01-30T06:29:27.229Z,4.99
2023-01-30T06:30:27.293Z,4.99
2023-01-30T06:31:27.288Z,4.99
2023-01-30T06:32:27.220Z,5.02
2023-01-30T06:33:27.191Z,5.04
2023-01-30T06:34:27.207Z,5.04
2023-01-30T06:35:27.167Z,5.04
2023-01-30T06:36:27.198Z,5.00
2023-01-30T06:37:27.162Z,5.04
2023-01-30T06:38:27.157Z,5.00
2023-01-30T06:39:27.135Z,5.04
2023-01-30T06:40:27.149Z,5.08
2023-01-30T06:41:27.103Z,5.07
2023-01-30T06:42:27.135Z,5.07
2023-01-30T06:43:27.081Z,5.10
2023-01-30T06:44:27.103Z,5.07
2023-01-30T06:45:27.061Z,5.08
2023-01-30T06:46:27.051Z,5.11
2023-01-30T06:47:27.077Z,5.10
2023-01-30T06:48:27.045Z,5.11
2023-01-30T06:49:27.036Z,5.10
2023-01-30T06:50:27.019Z,5.11
2023-01-30T06:51:27.019Z,5.14
2023-01-30T06:52:26.999Z,5.20
2023-01-30T06:53:26.997Z,5.25
2023-01-30T06:54:27.005Z,5.32
2023-01-30T06:55:26.995Z,5.32
2023-01-30T06:56:26.951Z,5.29
2023-01-30T06:57:26.955Z,5.32
2023-01-30T06:58:26.934Z,5.35
2023-01-30T06:59:26.944Z,5.32
2023-01-30T07:00:26.929Z,5.32
2023-01-30T07:01:28.876Z,5.35
2023-01-30T07:02:26.880Z,5.36
2023-01-30T07:03:26.914Z,5.41
2023-01-30T07:04:26.949Z,5.39
2023-01-30T07:05:26.871Z,5.36
2023-01-30T07:06:26.872Z,5.39
2023-01-30T07:07:26.855Z,5.44
2023-01-30T07:08:26.847Z,5.46
2023-01-30T07:09:26.831Z,5.41
2023-01-30T07:10:26.801Z,5.41
2023-01-30T07:11:26.811Z,5.38
2023-01-30T07:12:26.793Z,5.46
2023-01-30T07:13:26.789Z,5.50
2023-01-30T07:14:26.757Z,5.51
2023-01-30T07:15:26.793Z,5.54
2023-01-30T07:16:26.758Z,5.54
2023-01-30T07:17:26.748Z,5.57
2023-01-30T07:18:26.731Z,5.59
2023-01-30T07:19:26.727Z,5.62
2023-01-30T07:20:26.695Z,5.62
2023-01-30T07:21:26.704Z,5.65
2023-01-30T07:22:26.677Z,5.65
2023-01-30T07:23:26.685Z,5.68
2023-01-30T07:24:26.679Z,5.68
2023-01-30T07:25:26.663Z,5.71
2023-01-30T07:26:26.690Z,5.79
2023-01-30T07:27:26.644Z,5.84
2023-01-30T07:28:26.612Z,5.86
2023-01-30T07:29:26.627Z,5.87
2023-01-30T07:30:26.661Z,5.89
2023-01-30T07:31:26.620Z,5.89
2023-01-30T07:32:26.568Z,5.93
2023-01-30T07:33:26.599Z,5.91
2023-01-30T07:34:26.551Z,5.91
2023-01-30T07:35:26.587Z,5.91
2023-01-30T07:36:26.550Z,5.90
2023-01-30T07:37:26.537Z,5.90
2023-01-30T07:38:26.537Z,5.93
2023-01-30T07:39:26.519Z,5.91
2023-01-30T07:40:26.485Z,5.87
2023-01-30T07:41:26.499Z,5.87
2023-01-30T07:42:26.503Z,5.84
2023-01-30T07:43:26.477Z,5.89
2023-01-30T07:44:26.447Z,5.86
2023-01-30T07:45:26.460Z,5.90
2023-01-30T07:46:26.424Z,5.91
2023-01-30T07:47:26.443Z,5.91
2023-01-30T07:48:26.478Z,5.89
2023-01-30T07:49:26.412Z,5.86
2023-01-30T07:50:26.381Z,5.79
2023-01-30T07:51:26.403Z,5.61
2023-01-30T07:52:26.367Z,5.39
2023-01-30T07:53:26.379Z,5.39
2023-01-30T07:54:26.357Z,5.36
2023-01-30T07:55:26.350Z,5.33
2023-01-30T07:56:26.316Z,5.32
2023-01-30T07:57:26.329Z,5.35
2023-01-30T07:58:26.300Z,5.28
2023-01-30T07:59:26.307Z,5.23
2023-01-30T08:00:26.316Z,5.21
2023-01-30T08:01:26.407Z,5.15
2023-01-30T08:02:26.255Z,5.14
2023-01-30T08:03:26.273Z,5.18
2023-01-30T08:04:26.283Z,5.20
2023-01-30T08:05:26.250Z,5.21
2023-01-30T08:06:26.325Z,5.25
2023-01-30T08:07:26.227Z,5.23
2023-01-30T08:08:26.191Z,5.29
2023-01-30T08:09:26.208Z,5.33
2023-01-30T08:10:26.176Z,5.35
2023-01-30T08:11:26.184Z,5.43
2023-01-30T08:12:26.177Z,5.43
2023-01-30T08:13:26.164Z,5.39
2023-01-30T08:14:26.128Z,5.46
2023-01-30T08:15:26.149Z,5.47
2023-01-30T08:16:26.135Z,5.46
2023-01-30T08:17:26.137Z,5.48
2023-01-30T08:18:26.118Z,5.51
2023-01-30T08:19:26.101Z,5.57
2023-01-30T08:20:26.074Z,5.61
2023-01-30T08:21:26.093Z,5.53
2023-01-30T08:22:26.046Z,5.38
2023-01-30T08:23:26.059Z,5.28
2023-01-30T08:24:26.041Z,5.17
2023-01-30T08:25:26.046Z,5.10
2023-01-30T08:26:26.017Z,5.08
2023-01-30T08:27:26.018Z,5.05
2023-01-30T08:28:25.992Z,5.08
2023-01-30T08:29:25.997Z,5.15
2023-01-30T08:30:26.033Z,5.17
2023-01-30T08:31:26.023Z,5.18
2023-01-30T08:32:25.943Z,5.18
2023-01-30T08:33:25.956Z,5.21
2023-01-30T08:34:25.922Z,5.23
2023-01-30T08:35:25.938Z,5.21
2023-01-30T08:36:25.927Z,5.21
2023-01-30T08:37:25.916Z,5.38
2023-01-30T08:38:25.879Z,5.43
2023-01-30T08:39:25.893Z,5.44
2023-01-30T08:40:25.860Z,5.43
2023-01-30T08:41:25.875Z,5.44
2023-01-30T08:42:25.871Z,5.36
2023-01-30T08:43:25.860Z,5.35
2023-01-30T08:44:25.820Z,5.38
2023-01-30T08:45:25.841Z,5.38
2023-01-30T08:46:25.829Z,5.43
2023-01-30T08:47:25.810Z,5.54
2023-01-30T08:48:28.186Z,5.54
2023-01-30T08:49:25.798Z,5.57
2023-01-30T08:50:25.754Z,5.57
2023-01-30T08:51:25.769Z,5.57
2023-01-30T08:52:25.736Z,5.64
2023-01-30T08:53:25.745Z,5.66
2023-01-30T08:54:25.735Z,5.68
2023-01-30T08:55:25.729Z,5.66
2023-01-30T08:56:25.693Z,5.72
2023-01-30T08:57:25.708Z,5.75
2023-01-30T08:58:25.676Z,5.75
2023-01-30T08:59:25.685Z,5.89
2023-01-30T09:00:25.700Z,6.17
2023-01-30T09:01:25.924Z,5.98
2023-01-30T09:02:25.661Z,5.87
2023-01-30T09:03:25.642Z,5.84
2023-01-30T09:04:25.606Z,5.86
2023-01-30T09:05:25.624Z,5.82
2023-01-30T09:06:26.335Z,5.84
2023-01-30T09:07:25.605Z,5.80
2023-01-30T09:08:25.577Z,5.86
2023-01-30T09:09:25.581Z,5.84
2023-01-30T09:10:25.599Z,5.82
2023-01-30T09:11:25.556Z,5.73
2023-01-30T09:12:25.563Z,5.71
2023-01-30T09:13:25.541Z,5.69
2023-01-30T09:14:25.519Z,5.69
2023-01-30T09:15:25.520Z,5.71
2023-01-30T09:16:25.481Z,5.73
2023-01-30T09:17:25.504Z,5.79
2023-01-30T09:18:25.494Z,5.82
2023-01-30T09:19:25.476Z,5.87
2023-01-30T09:20:25.512Z,5.97
2023-01-30T09:21:25.454Z,5.89
2023-01-30T09:22:26.091Z,5.83
2023-01-30T09:23:25.448Z,5.87
2023-01-30T09:24:25.426Z,5.87
2023-01-30T09:25:25.421Z,5.93
2023-01-30T09:26:25.431Z,5.93
2023-01-30T09:27:25.394Z,5.94
2023-01-30T09:28:25.358Z,5.99
2023-01-30T09:29:25.367Z,6.02
2023-01-30T09:30:25.390Z,6.05
2023-01-30T09:31:25.502Z,6.05
2023-01-30T09:32:25.329Z,6.05
2023-01-30T09:33:25.323Z,6.19
2023-01-30T09:34:25.326Z,6.33
2023-01-30T09:35:25.308Z,6.33
2023-01-30T09:36:25.300Z,6.33
2023-01-30T09:37:25.284Z,6.30
2023-01-30T09:38:25.247Z,6.26
2023-01-30T09:39:25.260Z,6.24
2023-01-30T09:40:25.285Z,6.19
2023-01-30T09:41:25.253Z,6.19
2023-01-30T09:42:25.236Z,6.19
2023-01-30T09:43:25.232Z,6.20
2023-01-30T09:44:25.189Z,6.17
2023-01-30T09:45:25.202Z,6.19
2023-01-30T09:46:25.223Z,6.19
2023-01-30T09:47:25.190Z,6.16
2023-01-30T09:48:25.169Z,6.12
2023-01-30T09:49:25.155Z,6.11
2023-01-30T09:50:25.124Z,6.09
2023-01-30T09:51:25.137Z,6.05
2023-01-30T09:52:25.104Z,6.08
2023-01-30T09:53:25.125Z,6.09
2023-01-30T09:54:25.113Z,6.12
2023-01-30T09:55:25.093Z,6.12
2023-01-30T09:56:25.056Z,6.19
2023-01-30T09:57:25.082Z,6.24
2023-01-30T09:58:25.063Z,6.26
2023-01-30T09:59:25.053Z,6.24
2023-01-30T10:00:25.044Z,6.26
2023-01-30T10:01:25.033Z,6.24
2023-01-30T10:02:25.002Z,6.20
2023-01-30T10:03:25.063Z,6.22
2023-01-30T10:04:24.999Z,6.16
2023-01-30T10:05:25.004Z,6.08
2023-01-30T10:06:24.983Z,6.11
2023-01-30T10:07:25.033Z,6.14
2023-01-30T10:08:24.942Z,6.12
2023-01-30T10:09:25.449Z,6.14
2023-01-30T10:10:24.929Z,6.12
2023-01-30T10:11:24.932Z,6.09
2023-01-30T10:12:24.924Z,6.12
2023-01-30T10:13:24.906Z,6.11
2023-01-30T10:14:24.886Z,6.12
2023-01-30T10:15:24.881Z,6.12
2023-01-30T10:16:24.852Z,6.16
2023-01-30T10:17:24.859Z,6.19
2023-01-30T10:18:24.866Z,6.26
2023-01-30T10:19:35.208Z,6.22
2023-01-30T10:20:25.250Z,6.19
2023-01-30T10:21:24.818Z,6.11
2023-01-30T10:22:24.785Z,6.08
2023-01-30T10:23:24.798Z,6.16
2023-01-30T10:24:24.806Z,6.24
2023-01-30T10:25:24.773Z,6.30
2023-01-30T10:26:24.771Z,6.48
2023-01-30T10:27:24.751Z,6.57
2023-01-30T10:28:24.722Z,6.64
2023-01-30T10:29:24.732Z,6.78
2023-01-30T10:30:24.902Z,6.84
2023-01-30T10:31:24.802Z,6.82
2023-01-30T10:32:24.675Z,6.75
2023-01-30T10:33:24.705Z,6.74
2023-01-30T10:34:24.658Z,6.67
2023-01-30T10:35:26.191Z,6.62
2023-01-30T10:36:24.657Z,6.54
2023-01-30T10:37:24.645Z,6.51
2023-01-30T10:38:24.611Z,6.46
2023-01-30T10:39:24.640Z,6.41
2023-01-30T10:40:24.590Z,6.39
2023-01-30T10:41:24.641Z,6.41
2023-01-30T10:42:24.595Z,6.44
2023-01-30T10:43:24.583Z,6.44
2023-01-30T10:44:24.555Z,6.42
2023-01-30T10:45:24.573Z,6.45
2023-01-30T10:46:24.542Z,6.42
2023-01-30T10:47:26.455Z,6.44
2023-01-30T10:48:31.358Z,6.42
2023-01-30T10:49:24.524Z,6.46
2023-01-30T10:50:24.487Z,6.44
2023-01-30T10:51:24.502Z,6.44
2023-01-30T10:52:24.517Z,6.33
2023-01-30T10:53:24.484Z,6.36
2023-01-30T10:54:24.467Z,6.41
2023-01-30T10:55:36.286Z,6.42
2023-01-30T10:56:24.433Z,6.39
2023-01-30T10:57:24.448Z,6.36
2023-01-30T10:58:24.402Z,6.36
2023-01-30T10:59:24.435Z,6.38
2023-01-30T11:00:24.477Z,6.38
2023-01-30T11:01:24.415Z,6.35
2023-01-30T11:02:24.437Z,6.36
2023-01-30T11:03:24.346Z,6.36
2023-01-30T11:04:24.358Z,6.41
2023-01-30T11:05:24.323Z,6.42
2023-01-30T11:06:24.367Z,6.44
2023-01-30T11:07:24.315Z,6.46
2023-01-30T11:08:24.317Z,6.51
2023-01-30T11:09:24.723Z,6.51
2023-01-30T11:10:24.312Z,6.51
2023-01-30T11:11:24.263Z,6.51
2023-01-30T11:12:24.299Z,6.51
2023-01-30T11:13:24.246Z,6.51
2023-01-30T11:14:24.252Z,6.56
2023-01-30T11:15:24.222Z,6.59
2023-01-30T11:16:24.356Z,6.62
2023-01-30T11:17:24.223Z,6.64
2023-01-30T11:19:24.202Z,6.56
2023-01-30T11:20:24.191Z,6.51
2023-01-30T11:21:26.994Z,6.52
2023-01-30T11:22:24.177Z,6.51
2023-01-30T11:23:24.136Z,6.51
2023-01-30T11:24:24.170Z,6.51
2023-01-30T11:25:24.115Z,6.51
2023-01-30T11:26:27.587Z,6.52
2023-01-30T11:27:24.112Z,6.56
2023-01-30T11:28:24.126Z,6.57
2023-01-30T11:29:24.070Z,6.54
2023-01-30T11:30:24.112Z,6.52
2023-01-30T11:31:39.992Z,6.56
2023-01-30T11:32:24.095Z,6.56
2023-01-30T11:33:24.025Z,6.57
2023-01-30T11:34:24.059Z,6.51
2023-01-30T11:35:24.003Z,6.54
2023-01-30T11:36:24.271Z,6.48
2023-01-30T11:37:23.989Z,6.51
2023-01-30T11:38:24.010Z,6.52
2023-01-30T11:39:23.965Z,6.52
2023-01-30T11:40:24.032Z,6.57
2023-01-30T11:41:23.947Z,6.52
2023-01-30T11:42:24.003Z,6.51
2023-01-30T11:43:23.927Z,6.48
2023-01-30T11:44:23.937Z,6.45
2023-01-30T11:45:23.905Z,6.46
2023-01-30T11:46:23.972Z,6.46
2023-01-30T11:47:23.881Z,6.42
2023-01-30T11:48:33.910Z,6.36
2023-01-30T11:49:45.506Z,6.39
2023-01-30T11:50:25.864Z,6.39
2023-01-30T11:51:23.851Z,6.39
2023-01-30T11:52:23.849Z,6.36
2023-01-30T11:53:23.818Z,6.36
2023-01-30T11:54:23.934Z,6.35
2023-01-30T11:55:23.811Z,6.38
2023-01-30T11:56:23.816Z,6.41
2023-01-30T11:57:23.776Z,6.41
2023-01-30T11:58:23.788Z,6.42
2023-01-30T11:59:23.784Z,6.48
2023-01-30T12:00:23.838Z,6.48
2023-01-30T12:01:23.734Z,6.51
2023-01-30T12:02:23.875Z,6.54
2023-01-30T12:03:23.756Z,6.56
2023-01-30T12:04:23.734Z,6.63
2023-01-30T12:05:23.728Z,6.59
2023-01-30T12:06:23.730Z,6.62
2023-01-30T12:07:23.734Z,6.63
2023-01-30T12:08:40.282Z,6.66
2023-01-30T12:09:23.649Z,6.63
2023-01-30T12:10:23.659Z,6.62
2023-01-30T12:11:23.630Z,6.63
2023-01-30T12:12:23.665Z,6.70
2023-01-30T12:13:23.603Z,7.00
2023-01-30T12:14:23.616Z,7.29
2023-01-30T12:15:23.583Z,7.45
2023-01-30T12:16:23.699Z,7.33
2023-01-30T12:17:23.566Z,7.38
2023-01-30T12:18:23.595Z,7.36
2023-01-30T12:19:23.547Z,7.42
2023-01-30T12:20:23.559Z,7.40
2023-01-30T12:21:23.527Z,7.29
2023-01-30T12:22:23.542Z,7.31
2023-01-30T12:23:23.499Z,7.31
2023-01-30T12:24:23.539Z,7.35
2023-01-30T12:25:23.487Z,7.31
2023-01-30T12:26:23.540Z,7.20
2023-01-30T12:27:23.455Z,7.21
2023-01-30T12:28:23.470Z,7.23
2023-01-30T12:29:23.449Z,7.21
2023-01-30T12:30:23.482Z,7.18
2023-01-30T12:31:23.465Z,7.07
2023-01-30T12:32:23.425Z,7.10
2023-01-30T12:33:23.389Z,7.24
2023-01-30T12:34:27.065Z,7.28
2023-01-30T12:35:23.384Z,7.48
2023-01-30T12:36:23.481Z,7.53
2023-01-30T12:37:23.356Z,7.50
2023-01-30T12:38:23.363Z,7.56
2023-01-30T12:39:23.338Z,7.63
2023-01-30T12:40:23.344Z,7.60
2023-01-30T12:41:23.311Z,7.72
2023-01-30T12:42:25.641Z,8.06
2023-01-30T12:43:23.296Z,7.94
2023-01-30T12:44:23.298Z,8.13
2023-01-30T12:45:23.271Z,8.42
2023-01-30T12:46:23.343Z,8.19
2023-01-30T12:47:23.252Z,8.00
2023-01-30T12:48:23.296Z,7.87
2023-01-30T12:49:23.228Z,7.79
2023-01-30T12:50:23.237Z,7.67
2023-01-30T12:51:23.203Z,7.60
2023-01-30T12:52:23.219Z,7.54
2023-01-30T12:53:23.193Z,7.57
2023-01-30T12:54:23.215Z,7.87
2023-01-30T12:55:23.200Z,8.08
2023-01-30T12:56:23.183Z,8.03
2023-01-30T12:57:23.136Z,7.83
2023-01-30T12:58:23.152Z,7.80
2023-01-30T12:59:23.117Z,7.77
2023-01-30T13:00:23.144Z,7.73
2023-01-30T13:01:23.170Z,7.79
2023-01-30T13:02:24.832Z,7.73
2023-01-30T13:03:23.077Z,7.69
2023-01-30T13:04:23.087Z,7.69
2023-01-30T13:05:23.056Z,7.56
2023-01-30T13:06:23.082Z,7.53
2023-01-30T13:07:23.033Z,7.47
2023-01-30T13:08:23.051Z,7.47
2023-01-30T13:09:23.016Z,7.56
2023-01-30T13:10:23.621Z,7.51
2023-01-30T13:11:22.997Z,7.42
2023-01-30T13:12:23.028Z,7.38
2023-01-30T13:13:22.988Z,7.33
2023-01-30T13:14:23.015Z,7.21
2023-01-30T13:15:22.968Z,7.15
2023-01-30T13:16:22.994Z,7.03
2023-01-30T13:17:22.933Z,6.96
2023-01-30T13:18:22.952Z,6.93
2023-01-30T13:19:23.133Z,6.88
2023-01-30T13:20:22.914Z,6.82